sensor_id;sensor_type;location;lat;lon;timestamp;P1;durP1;ratioP1;P2;durP2;ratioP2
30896;SDS011;64229;52.246;21.054;2022-12-07T00:01:28;16.33;;;9.00;;
30896;SDS011;64229;52.246;21.054;2022-12-07T00:03:57;20.67;;;9.48;;
30896;SDS011;64229;52.246;21.054;2022-12-07T00:06:31;16.88;;;9.15;;
30896;SDS011;64229;52.246;21.054;2022-12-07T00:09:05;19.38;;;10.02;;
30896;SDS011;64229;52.246;21.054;2022-12-07T00:11:32;22.90;;;11.88;;
30896;SDS011;64229;52.246;21.054;2022-12-07T00:14:02;24.60;;;12.52;;
30896;SDS011;64229;52.246;21.054;2022-12-07T00:16:31;21.20;;;11.57;;
30896;SDS011;64229;52.246;21.054;2022-12-07T00:18:57;21.77;;;12.10;;
30896;SDS011;64229;52.246;21.054;2022-12-07T00:21:24;26.80;;;13.20;;
30896;SDS011;64229;52.246;21.054;2022-12-07T00:23:52;23.98;;;12.52;;
30896;SDS011;64229;52.246;21.054;2022-12-07T00:26:19;25.70;;;13.65;;
30896;SDS011;64229;52.246;21.054;2022-12-07T00:28:50;23.77;;;12.80;;
30896;SDS011;64229;52.246;21.054;2022-12-07T00:31:18;24.45;;;12.85;;
30896;SDS011;64229;52.246;21.054;2022-12-07T00:33:45;28.20;;;13.18;;
30896;SDS011;64229;52.246;21.054;2022-12-07T00:36:12;28.88;;;13.93;;
30896;SDS011;64229;52.246;21.054;2022-12-07T00:38:39;34.05;;;16.40;;
30896;SDS011;64229;52.246;21.054;2022-12-07T00:41:12;31.98;;;14.75;;
30896;SDS011;64229;52.246;21.054;2022-12-07T00:43:40;30.92;;;13.80;;
30896;SDS011;64229;52.246;21.054;2022-12-07T00:46:06;30.15;;;15.02;;
30896;SDS011;64229;52.246;21.054;2022-12-07T00:48:32;28.35;;;15.15;;
30896;SDS011;64229;52.246;21.054;2022-12-07T00:50:58;34.17;;;15.52;;
30896;SDS011;64229;52.246;21.054;2022-12-07T00:53:24;30.42;;;15.68;;
30896;SDS011;64229;52.246;21.054;2022-12-07T00:55:49;34.72;;;15.70;;
30896;SDS011;64229;52.246;21.054;2022-12-07T00:58:15;40.83;;;19.38;;
30896;SDS011;64229;52.246;21.054;2022-12-07T01:00:41;48.70;;;20.20;;
30896;SDS011;64229;52.246;21.054;2022-12-07T01:03:08;42.58;;;19.63;;
30896;SDS011;64229;52.246;21.054;2022-12-07T01:05:35;42.53;;;19.75;;
30896;SDS011;64229;52.246;21.054;2022-12-07T01:08:00;44.38;;;19.05;;
30896;SDS011;64229;52.246;21.054;2022-12-07T01:10:26;42.13;;;19.00;;
30896;SDS011;64229;52.246;21.054;2022-12-07T01:12:52;42.88;;;19.95;;
30896;SDS011;64229;52.246;21.054;2022-12-07T01:15:18;44.72;;;19.38;;
30896;SDS011;64229;52.246;21.054;2022-12-07T01:17:43;46.33;;;20.48;;
30896;SDS011;64229;52.246;21.054;2022-12-07T01:20:09;44.90;;;20.25;;
30896;SDS011;64229;52.246;21.054;2022-12-07T01:22:36;48.67;;;22.33;;
30896;SDS011;64229;52.246;21.054;2022-12-07T01:25:02;41.60;;;20.25;;
30896;SDS011;64229;52.246;21.054;2022-12-07T01:27:28;47.13;;;20.98;;
30896;SDS011;64229;52.246;21.054;2022-12-07T01:29:53;43.30;;;20.88;;
30896;SDS011;64229;52.246;21.054;2022-12-07T01:32:18;50.47;;;21.15;;
30896;SDS011;64229;52.246;21.054;2022-12-07T01:34:44;41.25;;;19.48;;
30896;SDS011;64229;52.246;21.054;2022-12-07T01:37:09;42.20;;;19.40;;
30896;SDS011;64229;52.246;21.054;2022-12-07T01:39:35;49.47;;;21.08;;
30896;SDS011;64229;52.246;21.054;2022-12-07T01:42:00;44.55;;;20.00;;
30896;SDS011;64229;52.246;21.054;2022-12-07T01:44:26;38.17;;;19.08;;
30896;SDS011;64229;52.246;21.054;2022-12-07T01:47:01;40.58;;;18.20;;
30896;SDS011;64229;52.246;21.054;2022-12-07T01:52:08;34.58;;;16.02;;
30896;SDS011;64229;52.246;21.054;2022-12-07T01:54:49;36.95;;;17.38;;
30896;SDS011;64229;52.246;21.054;2022-12-07T01:57:18;41.78;;;17.63;;
30896;SDS011;64229;52.246;21.054;2022-12-07T01:59:45;37.03;;;16.58;;
30896;SDS011;64229;52.246;21.054;2022-12-07T02:02:19;40.53;;;18.40;;
30896;SDS011;64229;52.246;21.054;2022-12-07T02:04:48;40.35;;;18.42;;
30896;SDS011;64229;52.246;21.054;2022-12-07T02:07:14;35.03;;;16.67;;
30896;SDS011;64229;52.246;21.054;2022-12-07T02:09:40;34.72;;;15.02;;
30896;SDS011;64229;52.246;21.054;2022-12-07T02:12:05;32.20;;;16.27;;
30896;SDS011;64229;52.246;21.054;2022-12-07T02:14:31;31.80;;;15.98;;
30896;SDS011;64229;52.246;21.054;2022-12-07T02:17:01;30.38;;;14.45;;
30896;SDS011;64229;52.246;21.054;2022-12-07T02:22:16;27.58;;;13.90;;
30896;SDS011;64229;52.246;21.054;2022-12-07T02:25:06;27.38;;;13.63;;
30896;SDS011;64229;52.246;21.054;2022-12-07T02:27:46;28.40;;;12.63;;
30896;SDS011;64229;52.246;21.054;2022-12-07T02:30:15;24.50;;;12.82;;
30896;SDS011;64229;52.246;21.054;2022-12-07T02:32:56;26.67;;;13.00;;
30896;SDS011;64229;52.246;21.054;2022-12-07T02:35:41;28.02;;;12.77;;
30896;SDS011;64229;52.246;21.054;2022-12-07T02:38:17;24.52;;;12.05;;
30896;SDS011;64229;52.246;21.054;2022-12-07T02:41:02;24.15;;;11.07;;
30896;SDS011;64229;52.246;21.054;2022-12-07T02:43:34;20.63;;;10.38;;
30896;SDS011;64229;52.246;21.054;2022-12-07T02:46:08;19.20;;;9.10;;
30896;SDS011;64229;52.246;21.054;2022-12-07T02:48:38;19.02;;;10.10;;
30896;SDS011;64229;52.246;21.054;2022-12-07T02:51:04;18.75;;;9.20;;
30896;SDS011;64229;52.246;21.054;2022-12-07T02:56:13;18.02;;;9.68;;
30896;SDS011;64229;52.246;21.054;2022-12-07T03:06:49;16.20;;;8.93;;
30896;SDS011;64229;52.246;21.054;2022-12-07T03:09:27;16.73;;;9.13;;
30896;SDS011;64229;52.246;21.054;2022-12-07T03:12:03;17.75;;;9.38;;
30896;SDS011;64229;52.246;21.054;2022-12-07T03:15:05;17.55;;;8.43;;
30896;SDS011;64229;52.246;21.054;2022-12-07T03:17:52;17.77;;;8.45;;
30896;SDS011;64229;52.246;21.054;2022-12-07T03:20:21;18.08;;;9.45;;
30896;SDS011;64229;52.246;21.054;2022-12-07T03:22:50;16.67;;;8.27;;
30896;SDS011;64229;52.246;21.054;2022-12-07T03:25:17;17.20;;;8.55;;
30896;SDS011;64229;52.246;21.054;2022-12-07T03:27:51;16.27;;;8.85;;
30896;SDS011;64229;52.246;21.054;2022-12-07T03:30:22;15.70;;;8.55;;
30896;SDS011;64229;52.246;21.054;2022-12-07T03:38:18;15.45;;;7.82;;
30896;SDS011;64229;52.246;21.054;2022-12-07T03:43:19;18.77;;;8.50;;
30896;SDS011;64229;52.246;21.054;2022-12-07T03:45:55;15.63;;;8.00;;
30896;SDS011;64229;52.246;21.054;2022-12-07T03:53:42;14.10;;;6.97;;
30896;SDS011;64229;52.246;21.054;2022-12-07T03:56:11;14.52;;;7.47;;
30896;SDS011;64229;52.246;21.054;2022-12-07T03:58:37;13.57;;;7.72;;
30896;SDS011;64229;52.246;21.054;2022-12-07T04:01:04;15.55;;;7.38;;
30896;SDS011;64229;52.246;21.054;2022-12-07T04:03:29;14.85;;;7.13;;
30896;SDS011;64229;52.246;21.054;2022-12-07T04:05:55;11.07;;;6.53;;
30896;SDS011;64229;52.246;21.054;2022-12-07T04:08:20;12.98;;;6.15;;
30896;SDS011;64229;52.246;21.054;2022-12-07T04:10:46;11.55;;;6.18;;
30896;SDS011;64229;52.246;21.054;2022-12-07T04:13:11;11.43;;;6.18;;
30896;SDS011;64229;52.246;21.054;2022-12-07T04:15:36;11.20;;;6.00;;
30896;SDS011;64229;52.246;21.054;2022-12-07T04:18:02;10.18;;;5.78;;
30896;SDS011;64229;52.246;21.054;2022-12-07T04:20:27;12.30;;;6.95;;
30896;SDS011;64229;52.246;21.054;2022-12-07T04:22:52;10.05;;;6.13;;
30896;SDS011;64229;52.246;21.054;2022-12-07T04:25:18;10.80;;;6.20;;
30896;SDS011;64229;52.246;21.054;2022-12-07T04:27:43;9.68;;;5.95;;
30896;SDS011;64229;52.246;21.054;2022-12-07T04:30:08;11.65;;;6.25;;
30896;SDS011;64229;52.246;21.054;2022-12-07T04:32:34;11.52;;;6.38;;
30896;SDS011;64229;52.246;21.054;2022-12-07T04:34:59;11.50;;;6.15;;
30896;SDS011;64229;52.246;21.054;2022-12-07T04:37:24;13.02;;;6.75;;
30896;SDS011;64229;52.246;21.054;2022-12-07T04:39:50;14.18;;;6.95;;
30896;SDS011;64229;52.246;21.054;2022-12-07T04:42:15;13.82;;;6.10;;
30896;SDS011;64229;52.246;21.054;2022-12-07T04:44:41;11.75;;;6.30;;
30896;SDS011;64229;52.246;21.054;2022-12-07T04:47:06;12.60;;;6.70;;
30896;SDS011;64229;52.246;21.054;2022-12-07T04:49:31;13.70;;;7.00;;
30896;SDS011;64229;52.246;21.054;2022-12-07T04:51:57;12.88;;;6.07;;
30896;SDS011;64229;52.246;21.054;2022-12-07T04:54:22;11.88;;;7.05;;
30896;SDS011;64229;52.246;21.054;2022-12-07T04:56:48;12.48;;;6.93;;
30896;SDS011;64229;52.246;21.054;2022-12-07T04:59:13;12.98;;;6.40;;
30896;SDS011;64229;52.246;21.054;2022-12-07T05:01:40;12.55;;;6.75;;
30896;SDS011;64229;52.246;21.054;2022-12-07T05:04:05;12.88;;;6.25;;
30896;SDS011;64229;52.246;21.054;2022-12-07T05:06:31;10.30;;;5.97;;
30896;SDS011;64229;52.246;21.054;2022-12-07T05:08:57;9.35;;;5.25;;
30896;SDS011;64229;52.246;21.054;2022-12-07T05:11:22;10.05;;;5.90;;
30896;SDS011;64229;52.246;21.054;2022-12-07T05:14:03;10.80;;;6.00;;
30896;SDS011;64229;52.246;21.054;2022-12-07T05:16:30;10.50;;;6.07;;
30896;SDS011;64229;52.246;21.054;2022-12-07T05:18:55;14.07;;;6.15;;
30896;SDS011;64229;52.246;21.054;2022-12-07T05:21:21;10.95;;;6.13;;
30896;SDS011;64229;52.246;21.054;2022-12-07T05:23:47;12.73;;;6.05;;
30896;SDS011;64229;52.246;21.054;2022-12-07T05:26:12;10.27;;;5.53;;
30896;SDS011;64229;52.246;21.054;2022-12-07T05:28:37;12.05;;;5.88;;
30896;SDS011;64229;52.246;21.054;2022-12-07T05:31:03;12.05;;;6.15;;
30896;SDS011;64229;52.246;21.054;2022-12-07T05:33:28;10.73;;;5.93;;
30896;SDS011;64229;52.246;21.054;2022-12-07T05:35:54;13.45;;;5.88;;
30896;SDS011;64229;52.246;21.054;2022-12-07T05:38:19;11.32;;;5.85;;
30896;SDS011;64229;52.246;21.054;2022-12-07T05:40:44;10.73;;;6.07;;
30896;SDS011;64229;52.246;21.054;2022-12-07T05:43:10;11.63;;;6.45;;
30896;SDS011;64229;52.246;21.054;2022-12-07T05:45:35;12.98;;;7.38;;
30896;SDS011;64229;52.246;21.054;2022-12-07T05:48:01;13.18;;;6.53;;
30896;SDS011;64229;52.246;21.054;2022-12-07T05:50:26;14.32;;;7.45;;
30896;SDS011;64229;52.246;21.054;2022-12-07T05:52:52;16.35;;;7.72;;
30896;SDS011;64229;52.246;21.054;2022-12-07T05:55:18;13.35;;;7.43;;
30896;SDS011;64229;52.246;21.054;2022-12-07T05:57:43;13.60;;;7.25;;
30896;SDS011;64229;52.246;21.054;2022-12-07T06:00:28;15.90;;;8.07;;
30896;SDS011;64229;52.246;21.054;2022-12-07T06:02:54;16.50;;;8.20;;
30896;SDS011;64229;52.246;21.054;2022-12-07T06:05:19;11.32;;;6.60;;
30896;SDS011;64229;52.246;21.054;2022-12-07T06:07:44;13.52;;;7.85;;
30896;SDS011;64229;52.246;21.054;2022-12-07T06:10:10;12.77;;;7.55;;
30896;SDS011;64229;52.246;21.054;2022-12-07T06:12:35;14.32;;;7.43;;
30896;SDS011;64229;52.246;21.054;2022-12-07T06:15:00;13.88;;;7.75;;
30896;SDS011;64229;52.246;21.054;2022-12-07T06:17:26;13.05;;;6.45;;
30896;SDS011;64229;52.246;21.054;2022-12-07T06:19:51;14.00;;;7.38;;
30896;SDS011;64229;52.246;21.054;2022-12-07T06:22:17;13.45;;;6.43;;
30896;SDS011;64229;52.246;21.054;2022-12-07T06:24:42;14.70;;;7.15;;
30896;SDS011;64229;52.246;21.054;2022-12-07T06:27:08;14.05;;;7.10;;
30896;SDS011;64229;52.246;21.054;2022-12-07T06:29:34;13.63;;;6.78;;
30896;SDS011;64229;52.246;21.054;2022-12-07T06:32:00;12.23;;;6.57;;
30896;SDS011;64229;52.246;21.054;2022-12-07T06:34:26;15.63;;;6.88;;
30896;SDS011;64229;52.246;21.054;2022-12-07T06:36:52;11.13;;;6.13;;
30896;SDS011;64229;52.246;21.054;2022-12-07T06:39:20;11.50;;;6.55;;
30896;SDS011;64229;52.246;21.054;2022-12-07T06:41:47;12.85;;;5.90;;
30896;SDS011;64229;52.246;21.054;2022-12-07T06:44:16;12.38;;;6.35;;
30896;SDS011;64229;52.246;21.054;2022-12-07T06:46:42;11.90;;;6.35;;
30896;SDS011;64229;52.246;21.054;2022-12-07T06:49:07;13.57;;;6.63;;
30896;SDS011;64229;52.246;21.054;2022-12-07T06:51:33;10.65;;;5.90;;
30896;SDS011;64229;52.246;21.054;2022-12-07T06:54:01;15.18;;;6.70;;
30896;SDS011;64229;52.246;21.054;2022-12-07T06:56:27;11.90;;;5.88;;
30896;SDS011;64229;52.246;21.054;2022-12-07T06:58:53;14.57;;;7.60;;
30896;SDS011;64229;52.246;21.054;2022-12-07T07:01:19;16.00;;;7.18;;
30896;SDS011;64229;52.246;21.054;2022-12-07T07:03:44;14.65;;;7.20;;
30896;SDS011;64229;52.246;21.054;2022-12-07T07:06:11;13.82;;;6.32;;
30896;SDS011;64229;52.246;21.054;2022-12-07T07:08:37;11.23;;;5.80;;
30896;SDS011;64229;52.246;21.054;2022-12-07T07:11:03;10.00;;;5.53;;
30896;SDS011;64229;52.246;21.054;2022-12-07T07:13:29;11.65;;;6.10;;
30896;SDS011;64229;52.246;21.054;2022-12-07T07:15:55;12.77;;;5.80;;
30896;SDS011;64229;52.246;21.054;2022-12-07T07:18:21;11.68;;;5.72;;
30896;SDS011;64229;52.246;21.054;2022-12-07T07:20:46;11.40;;;5.95;;
30896;SDS011;64229;52.246;21.054;2022-12-07T07:23:12;14.30;;;6.43;;
30896;SDS011;64229;52.246;21.054;2022-12-07T07:25:37;12.65;;;5.88;;
30896;SDS011;64229;52.246;21.054;2022-12-07T07:28:03;11.48;;;6.53;;
30896;SDS011;64229;52.246;21.054;2022-12-07T07:30:29;10.50;;;5.72;;
30896;SDS011;64229;52.246;21.054;2022-12-07T07:32:58;12.82;;;5.85;;
30896;SDS011;64229;52.246;21.054;2022-12-07T07:35:24;14.10;;;5.95;;
30896;SDS011;64229;52.246;21.054;2022-12-07T07:37:51;12.38;;;5.82;;
30896;SDS011;64229;52.246;21.054;2022-12-07T07:40:16;12.63;;;5.72;;
30896;SDS011;64229;52.246;21.054;2022-12-07T07:42:41;11.85;;;5.85;;
30896;SDS011;64229;52.246;21.054;2022-12-07T07:45:07;13.68;;;6.25;;
30896;SDS011;64229;52.246;21.054;2022-12-07T07:47:33;15.98;;;6.13;;
30896;SDS011;64229;52.246;21.054;2022-12-07T07:49:58;11.18;;;5.97;;
30896;SDS011;64229;52.246;21.054;2022-12-07T07:52:24;12.07;;;6.28;;
30896;SDS011;64229;52.246;21.054;2022-12-07T07:54:49;10.45;;;5.45;;
30896;SDS011;64229;52.246;21.054;2022-12-07T07:57:15;11.60;;;6.38;;
30896;SDS011;64229;52.246;21.054;2022-12-07T07:59:41;12.57;;;6.55;;
30896;SDS011;64229;52.246;21.054;2022-12-07T08:02:08;16.25;;;6.10;;
30896;SDS011;64229;52.246;21.054;2022-12-07T08:04:38;12.55;;;5.95;;
30896;SDS011;64229;52.246;21.054;2022-12-07T08:07:03;11.70;;;6.28;;
30896;SDS011;64229;52.246;21.054;2022-12-07T08:09:29;13.68;;;6.78;;
30896;SDS011;64229;52.246;21.054;2022-12-07T08:11:54;14.45;;;6.38;;
30896;SDS011;64229;52.246;21.054;2022-12-07T08:14:19;14.63;;;7.13;;
30896;SDS011;64229;52.246;21.054;2022-12-07T08:16:45;11.73;;;6.38;;
30896;SDS011;64229;52.246;21.054;2022-12-07T08:19:10;17.33;;;6.75;;
30896;SDS011;64229;52.246;21.054;2022-12-07T08:21:35;14.90;;;6.88;;
30896;SDS011;64229;52.246;21.054;2022-12-07T08:24:02;14.25;;;7.15;;
30896;SDS011;64229;52.246;21.054;2022-12-07T08:26:27;13.43;;;7.13;;
30896;SDS011;64229;52.246;21.054;2022-12-07T08:28:53;17.42;;;7.53;;
30896;SDS011;64229;52.246;21.054;2022-12-07T08:31:18;20.27;;;8.77;;
30896;SDS011;64229;52.246;21.054;2022-12-07T08:33:44;16.33;;;7.78;;
30896;SDS011;64229;52.246;21.054;2022-12-07T08:36:11;18.40;;;8.23;;
30896;SDS011;64229;52.246;21.054;2022-12-07T08:38:38;23.38;;;9.05;;
30896;SDS011;64229;52.246;21.054;2022-12-07T08:41:05;21.50;;;9.10;;
30896;SDS011;64229;52.246;21.054;2022-12-07T08:43:31;20.73;;;8.57;;
30896;SDS011;64229;52.246;21.054;2022-12-07T08:46:10;23.08;;;9.27;;
30896;SDS011;64229;52.246;21.054;2022-12-07T08:48:50;23.95;;;9.90;;
30896;SDS011;64229;52.246;21.054;2022-12-07T08:51:32;27.88;;;11.30;;
30896;SDS011;64229;52.246;21.054;2022-12-07T08:53:58;31.20;;;11.63;;
30896;SDS011;64229;52.246;21.054;2022-12-07T08:56:26;27.90;;;12.18;;
30896;SDS011;64229;52.246;21.054;2022-12-07T08:58:52;28.67;;;11.73;;
30896;SDS011;64229;52.246;21.054;2022-12-07T09:01:17;26.00;;;11.90;;
30896;SDS011;64229;52.246;21.054;2022-12-07T09:03:43;27.05;;;12.27;;
30896;SDS011;64229;52.246;21.054;2022-12-07T09:06:08;29.95;;;11.55;;
30896;SDS011;64229;52.246;21.054;2022-12-07T09:08:39;26.83;;;11.25;;
30896;SDS011;64229;52.246;21.054;2022-12-07T09:11:07;26.95;;;12.10;;
30896;SDS011;64229;52.246;21.054;2022-12-07T09:13:32;28.27;;;12.45;;
30896;SDS011;64229;52.246;21.054;2022-12-07T09:15:58;28.70;;;10.95;;
30896;SDS011;64229;52.246;21.054;2022-12-07T09:18:23;27.77;;;11.95;;
30896;SDS011;64229;52.246;21.054;2022-12-07T09:20:49;29.52;;;11.90;;
30896;SDS011;64229;52.246;21.054;2022-12-07T09:23:15;26.88;;;11.65;;
30896;SDS011;64229;52.246;21.054;2022-12-07T09:25:40;24.35;;;11.23;;
30896;SDS011;64229;52.246;21.054;2022-12-07T09:28:06;24.92;;;11.35;;
30896;SDS011;64229;52.246;21.054;2022-12-07T09:30:31;26.05;;;10.63;;
30896;SDS011;64229;52.246;21.054;2022-12-07T09:32:57;23.23;;;10.82;;
30896;SDS011;64229;52.246;21.054;2022-12-07T09:35:22;27.23;;;10.73;;
30896;SDS011;64229;52.246;21.054;2022-12-07T09:37:48;21.30;;;10.65;;
30896;SDS011;64229;52.246;21.054;2022-12-07T09:40:15;23.75;;;11.15;;
30896;SDS011;64229;52.246;21.054;2022-12-07T09:42:43;26.63;;;10.55;;
30896;SDS011;64229;52.246;21.054;2022-12-07T09:45:14;23.80;;;11.05;;
30896;SDS011;64229;52.246;21.054;2022-12-07T09:47:45;27.15;;;11.82;;
30896;SDS011;64229;52.246;21.054;2022-12-07T09:50:15;23.17;;;9.43;;
30896;SDS011;64229;52.246;21.054;2022-12-07T09:52:44;23.05;;;10.35;;
30896;SDS011;64229;52.246;21.054;2022-12-07T09:55:13;22.60;;;9.98;;
30896;SDS011;64229;52.246;21.054;2022-12-07T09:57:41;27.42;;;11.02;;
30896;SDS011;64229;52.246;21.054;2022-12-07T10:02:47;22.73;;;9.77;;
30896;SDS011;64229;52.246;21.054;2022-12-07T10:05:16;24.92;;;9.48;;
30896;SDS011;64229;52.246;21.054;2022-12-07T10:07:47;24.88;;;9.77;;
30896;SDS011;64229;52.246;21.054;2022-12-07T10:10:17;22.52;;;9.60;;
30896;SDS011;64229;52.246;21.054;2022-12-07T10:12:56;26.30;;;9.20;;
30896;SDS011;64229;52.246;21.054;2022-12-07T10:16:09;22.73;;;9.30;;
30896;SDS011;64229;52.246;21.054;2022-12-07T10:20:59;20.15;;;8.43;;
30896;SDS011;64229;52.246;21.054;2022-12-07T10:23:36;22.45;;;8.90;;
30896;SDS011;64229;52.246;21.054;2022-12-07T10:28:50;23.83;;;9.55;;
30896;SDS011;64229;52.246;21.054;2022-12-07T10:31:16;22.48;;;8.88;;
30896;SDS011;64229;52.246;21.054;2022-12-07T10:33:52;19.35;;;9.02;;
30896;SDS011;64229;52.246;21.054;2022-12-07T10:39:19;26.05;;;9.80;;
30896;SDS011;64229;52.246;21.054;2022-12-07T10:41:55;21.85;;;9.25;;
30896;SDS011;64229;52.246;21.054;2022-12-07T10:44:24;21.50;;;9.23;;
30896;SDS011;64229;52.246;21.054;2022-12-07T10:46:58;24.63;;;8.55;;
30896;SDS011;64229;52.246;21.054;2022-12-07T10:52:15;20.42;;;8.98;;
30896;SDS011;64229;52.246;21.054;2022-12-07T10:55:03;25.15;;;11.25;;
30896;SDS011;64229;52.246;21.054;2022-12-07T11:03:29;25.33;;;9.73;;
30896;SDS011;64229;52.246;21.054;2022-12-07T11:08:50;19.33;;;9.35;;
30896;SDS011;64229;52.246;21.054;2022-12-07T11:14:31;18.83;;;8.82;;
30896;SDS011;64229;52.246;21.054;2022-12-07T11:17:31;17.83;;;8.70;;
30896;SDS011;64229;52.246;21.054;2022-12-07T11:25:22;19.40;;;8.65;;
30896;SDS011;64229;52.246;21.054;2022-12-07T11:28:00;16.35;;;8.60;;
30896;SDS011;64229;52.246;21.054;2022-12-07T11:33:56;15.88;;;8.18;;
30896;SDS011;64229;52.246;21.054;2022-12-07T11:36:16;20.08;;;9.57;;
30896;SDS011;64229;52.246;21.054;2022-12-07T11:38:55;20.10;;;8.90;;
30896;SDS011;64229;52.246;21.054;2022-12-07T11:41:29;20.20;;;9.60;;
30896;SDS011;64229;52.246;21.054;2022-12-07T11:44:06;17.45;;;8.98;;
30896;SDS011;64229;52.246;21.054;2022-12-07T11:46:43;22.23;;;9.55;;
30896;SDS011;64229;52.246;21.054;2022-12-07T11:52:23;17.90;;;9.48;;
30896;SDS011;64229;52.246;21.054;2022-12-07T11:54:54;18.77;;;9.30;;
30896;SDS011;64229;52.246;21.054;2022-12-07T11:57:42;19.77;;;9.25;;
30896;SDS011;64229;52.246;21.054;2022-12-07T12:00:12;24.63;;;9.55;;
30896;SDS011;64229;52.246;21.054;2022-12-07T12:05:22;18.50;;;9.52;;
30896;SDS011;64229;52.246;21.054;2022-12-07T12:07:52;24.13;;;11.20;;
30896;SDS011;64229;52.246;21.054;2022-12-07T12:13:23;19.80;;;10.45;;
30896;SDS011;64229;52.246;21.054;2022-12-07T12:16:50;19.73;;;9.30;;
30896;SDS011;64229;52.246;21.054;2022-12-07T12:21:39;19.20;;;8.60;;
30896;SDS011;64229;52.246;21.054;2022-12-07T12:24:09;19.00;;;8.13;;
30896;SDS011;64229;52.246;21.054;2022-12-07T12:26:40;16.10;;;8.32;;
30896;SDS011;64229;52.246;21.054;2022-12-07T12:29:21;20.13;;;9.35;;
30896;SDS011;64229;52.246;21.054;2022-12-07T12:32:03;22.23;;;9.88;;
30896;SDS011;64229;52.246;21.054;2022-12-07T12:37:14;21.50;;;10.32;;
30896;SDS011;64229;52.246;21.054;2022-12-07T12:42:49;22.45;;;9.55;;
30896;SDS011;64229;52.246;21.054;2022-12-07T12:45:20;19.23;;;9.40;;
30896;SDS011;64229;52.246;21.054;2022-12-07T12:50:40;24.38;;;11.20;;
30896;SDS011;64229;52.246;21.054;2022-12-07T12:53:14;21.42;;;10.02;;
30896;SDS011;64229;52.246;21.054;2022-12-07T12:55:48;22.83;;;10.68;;
30896;SDS011;64229;52.246;21.054;2022-12-07T13:00:42;21.55;;;10.20;;
30896;SDS011;64229;52.246;21.054;2022-12-07T13:03:20;22.95;;;10.60;;
30896;SDS011;64229;52.246;21.054;2022-12-07T13:08:52;23.92;;;10.55;;
30896;SDS011;64229;52.246;21.054;2022-12-07T13:11:29;26.48;;;12.07;;
30896;SDS011;64229;52.246;21.054;2022-12-07T13:17:01;19.30;;;9.75;;
30896;SDS011;64229;52.246;21.054;2022-12-07T13:24:57;17.42;;;8.50;;
30896;SDS011;64229;52.246;21.054;2022-12-07T13:27:26;16.48;;;9.00;;
30896;SDS011;64229;52.246;21.054;2022-12-07T13:29:52;19.42;;;9.52;;
30896;SDS011;64229;52.246;21.054;2022-12-07T13:32:25;17.42;;;8.80;;
30896;SDS011;64229;52.246;21.054;2022-12-07T13:34:53;15.88;;;8.25;;
30896;SDS011;64229;52.246;21.054;2022-12-07T13:37:25;24.00;;;10.02;;
30896;SDS011;64229;52.246;21.054;2022-12-07T13:42:25;18.33;;;8.65;;
30896;SDS011;64229;52.246;21.054;2022-12-07T13:44:51;19.48;;;9.10;;
30896;SDS011;64229;52.246;21.054;2022-12-07T13:47:31;18.83;;;9.82;;
30896;SDS011;64229;52.246;21.054;2022-12-07T13:50:21;20.02;;;9.82;;
30896;SDS011;64229;52.246;21.054;2022-12-07T13:52:46;19.42;;;10.27;;
30896;SDS011;64229;52.246;21.054;2022-12-07T13:55:15;20.73;;;9.85;;
30896;SDS011;64229;52.246;21.054;2022-12-07T13:57:44;21.55;;;10.93;;
30896;SDS011;64229;52.246;21.054;2022-12-07T14:00:19;22.75;;;11.02;;
30896;SDS011;64229;52.246;21.054;2022-12-07T14:03:25;21.23;;;11.07;;
30896;SDS011;64229;52.246;21.054;2022-12-07T14:05:47;19.35;;;9.93;;
30896;SDS011;64229;52.246;21.054;2022-12-07T14:08:29;20.85;;;9.65;;
30896;SDS011;64229;52.246;21.054;2022-12-07T14:10:55;23.90;;;10.38;;
30896;SDS011;64229;52.246;21.054;2022-12-07T14:13:30;20.55;;;10.75;;
30896;SDS011;64229;52.246;21.054;2022-12-07T14:16:05;21.58;;;11.30;;
30896;SDS011;64229;52.246;21.054;2022-12-07T14:22:17;19.73;;;10.10;;
30896;SDS011;64229;52.246;21.054;2022-12-07T14:24:43;23.35;;;11.32;;
30896;SDS011;64229;52.246;21.054;2022-12-07T14:27:16;22.02;;;11.50;;
30896;SDS011;64229;52.246;21.054;2022-12-07T14:32:20;26.07;;;12.60;;
30896;SDS011;64229;52.246;21.054;2022-12-07T14:37:25;22.58;;;11.63;;
30896;SDS011;64229;52.246;21.054;2022-12-07T14:39:51;25.27;;;13.70;;
30896;SDS011;64229;52.246;21.054;2022-12-07T14:42:17;24.10;;;11.80;;
30896;SDS011;64229;52.246;21.054;2022-12-07T14:44:43;25.77;;;13.23;;
30896;SDS011;64229;52.246;21.054;2022-12-07T14:47:09;26.00;;;12.45;;
30896;SDS011;64229;52.246;21.054;2022-12-07T14:49:35;29.10;;;13.55;;
30896;SDS011;64229;52.246;21.054;2022-12-07T14:52:01;26.70;;;12.90;;
30896;SDS011;64229;52.246;21.054;2022-12-07T14:54:27;27.30;;;11.98;;
30896;SDS011;64229;52.246;21.054;2022-12-07T14:56:56;27.25;;;12.15;;
30896;SDS011;64229;52.246;21.054;2022-12-07T14:59:21;26.25;;;13.70;;
30896;SDS011;64229;52.246;21.054;2022-12-07T15:01:46;27.67;;;13.50;;
30896;SDS011;64229;52.246;21.054;2022-12-07T15:04:12;27.75;;;12.80;;
30896;SDS011;64229;52.246;21.054;2022-12-07T15:06:37;25.92;;;12.98;;
30896;SDS011;64229;52.246;21.054;2022-12-07T15:09:03;30.73;;;13.07;;
30896;SDS011;64229;52.246;21.054;2022-12-07T15:11:28;27.63;;;13.40;;
30896;SDS011;64229;52.246;21.054;2022-12-07T15:13:54;24.70;;;11.98;;
30896;SDS011;64229;52.246;21.054;2022-12-07T15:16:36;28.90;;;13.13;;
30896;SDS011;64229;52.246;21.054;2022-12-07T15:19:05;29.13;;;13.98;;
30896;SDS011;64229;52.246;21.054;2022-12-07T15:21:31;28.67;;;13.32;;
30896;SDS011;64229;52.246;21.054;2022-12-07T15:23:56;27.52;;;13.10;;
30896;SDS011;64229;52.246;21.054;2022-12-07T15:26:21;26.17;;;11.93;;
30896;SDS011;64229;52.246;21.054;2022-12-07T15:28:47;25.50;;;12.30;;
30896;SDS011;64229;52.246;21.054;2022-12-07T15:31:15;26.20;;;12.60;;
30896;SDS011;64229;52.246;21.054;2022-12-07T15:33:42;27.67;;;12.45;;
30896;SDS011;64229;52.246;21.054;2022-12-07T15:36:08;26.63;;;13.05;;
30896;SDS011;64229;52.246;21.054;2022-12-07T15:38:47;27.27;;;13.25;;
30896;SDS011;64229;52.246;21.054;2022-12-07T15:41:13;27.48;;;13.75;;
30896;SDS011;64229;52.246;21.054;2022-12-07T15:43:38;27.75;;;12.73;;
30896;SDS011;64229;52.246;21.054;2022-12-07T15:46:22;29.15;;;12.52;;
30896;SDS011;64229;52.246;21.054;2022-12-07T15:48:47;24.83;;;12.48;;
30896;SDS011;64229;52.246;21.054;2022-12-07T15:51:13;35.53;;;13.77;;
30896;SDS011;64229;52.246;21.054;2022-12-07T15:53:38;32.58;;;14.30;;
30896;SDS011;64229;52.246;21.054;2022-12-07T15:56:07;24.42;;;12.30;;
30896;SDS011;64229;52.246;21.054;2022-12-07T15:58:33;24.65;;;12.07;;
30896;SDS011;64229;52.246;21.054;2022-12-07T16:00:59;27.10;;;13.25;;
30896;SDS011;64229;52.246;21.054;2022-12-07T16:03:24;26.58;;;12.85;;
30896;SDS011;64229;52.246;21.054;2022-12-07T16:05:50;29.58;;;14.07;;
30896;SDS011;64229;52.246;21.054;2022-12-07T16:08:15;29.33;;;14.50;;
30896;SDS011;64229;52.246;21.054;2022-12-07T16:10:41;27.05;;;13.35;;
30896;SDS011;64229;52.246;21.054;2022-12-07T16:13:09;31.25;;;13.80;;
30896;SDS011;64229;52.246;21.054;2022-12-07T16:15:38;29.30;;;14.20;;